createdAt,value
2019-06-20T00:02:21.445Z,95.40
2019-06-20T00:04:52.382Z,94.80
2019-06-20T00:07:23.214Z,94.80
2019-06-20T00:09:53.937Z,94.70
2019-06-20T00:12:24.646Z,94.90
2019-06-20T00:14:55.236Z,94.90
2019-06-20T00:17:25.892Z,94.90
2019-06-20T00:19:56.943Z,94.80
2019-06-20T00:22:27.886Z,94.70
2019-06-20T00:24:58.685Z,95.20
2019-06-20T00:27:29.738Z,94.20
2019-06-20T00:30:00.910Z,93.60
2019-06-20T00:32:31.590Z,94.20
2019-06-20T00:35:02.504Z,93.70
2019-06-20T00:37:33.208Z,93.50
2019-06-20T00:40:07.262Z,93.60
2019-06-20T00:42:38.283Z,93.80
2019-06-20T00:45:09.222Z,93.60
2019-06-20T00:47:40.069Z,93.30
2019-06-20T00:50:11.502Z,92.80
2019-06-20T00:52:42.395Z,92.40
2019-06-20T00:55:13.322Z,92.40
2019-06-20T00:57:43.865Z,92.20
2019-06-20T01:00:15.211Z,92.30
2019-06-20T01:02:47.608Z,92.10
2019-06-20T01:05:18.681Z,91.90
2019-06-20T01:07:49.848Z,92.20
2019-06-20T01:10:22.307Z,92.50
2019-06-20T01:12:53.089Z,92.20
2019-06-20T01:15:23.985Z,92.20
2019-06-20T01:17:54.832Z,92.00
2019-06-20T01:20:26.039Z,92.20
2019-06-20T01:22:56.841Z,92.10
2019-06-20T01:25:35.691Z,92.00
2019-06-20T01:28:06.833Z,92.00
2019-06-20T01:30:37.860Z,92.20
2019-06-20T01:33:08.628Z,91.70
2019-06-20T01:35:39.662Z,92.00
2019-06-20T01:38:10.334Z,91.80
2019-06-20T01:40:41.982Z,92.10
2019-06-20T01:43:12.790Z,92.10
2019-06-20T01:45:43.708Z,91.50
2019-06-20T01:48:14.830Z,91.60
2019-06-20T01:50:45.496Z,91.50
2019-06-20T01:53:16.232Z,91.30
2019-06-20T01:55:46.885Z,91.40
2019-06-20T01:58:17.665Z,91.40
2019-06-20T02:00:51.065Z,92.30
2019-06-20T02:03:21.810Z,93.00
2019-06-20T02:05:52.556Z,92.80
2019-06-20T02:08:30.254Z,94.20
2019-06-20T02:11:00.910Z,97.10
2019-06-20T02:13:31.822Z,99.90
2019-06-20T02:16:02.698Z,99.90
2019-06-20T02:18:33.610Z,99.90
2019-06-20T02:21:06.242Z,99.90
2019-06-20T02:23:37.017Z,99.90
2019-06-20T02:26:07.931Z,99.90
2019-06-20T02:28:39.118Z,99.90
2019-06-20T02:31:10.263Z,99.90
2019-06-20T02:33:41.428Z,99.90
2019-06-20T02:36:13.623Z,99.90
2019-06-20T02:38:44.508Z,99.90
2019-06-20T02:41:15.479Z,99.90
2019-06-20T02:43:47.439Z,99.90
2019-06-20T02:46:21.304Z,99.90
2019-06-20T02:48:52.067Z,99.90
2019-06-20T02:51:25.400Z,99.90
2019-06-20T02:53:56.216Z,99.90
2019-06-20T02:56:28.904Z,99.90
2019-06-20T02:58:59.800Z,99.90
2019-06-20T03:01:30.613Z,99.90
2019-06-20T03:04:01.860Z,99.90
2019-06-20T03:06:32.557Z,99.90
2019-06-20T03:09:03.590Z,99.90
2019-06-20T03:11:35.210Z,99.90
2019-06-20T03:14:06.363Z,99.90
2019-06-20T03:16:37.050Z,99.90
2019-06-20T03:19:08.021Z,99.90
2019-06-20T03:21:38.846Z,99.90
2019-06-20T03:24:09.486Z,99.90
2019-06-20T03:26:40.302Z,99.90
2019-06-20T03:29:11.402Z,99.90
2019-06-20T03:31:42.125Z,99.90
2019-06-20T03:34:12.970Z,99.90
2019-06-20T03:36:43.804Z,99.90
2019-06-20T03:39:15.489Z,99.90
2019-06-20T03:41:46.174Z,99.90
2019-06-20T03:44:17.126Z,99.90
2019-06-20T03:46:47.980Z,99.90
2019-06-20T03:49:18.980Z,99.90
2019-06-20T03:51:51.714Z,99.90
2019-06-20T03:54:22.272Z,99.90
2019-06-20T03:56:53.005Z,99.90
2019-06-20T03:59:23.775Z,99.90
2019-06-20T04:01:54.559Z,99.90
2019-06-20T04:04:25.736Z,99.90
2019-06-20T04:06:56.766Z,99.90
2019-06-20T04:09:27.565Z,99.90
2019-06-20T04:11:58.605Z,99.90
2019-06-20T04:14:29.393Z,99.90
2019-06-20T04:17:00.301Z,99.90
2019-06-20T04:19:33.941Z,99.90
2019-06-20T04:22:04.726Z,99.90
2019-06-20T04:24:36.625Z,99.90
2019-06-20T04:27:07.405Z,99.90
2019-06-20T04:29:38.373Z,99.90
2019-06-20T04:32:09.126Z,99.90
2019-06-20T04:34:39.865Z,99.90
2019-06-20T04:37:10.850Z,99.90
2019-06-20T04:39:41.487Z,99.90
2019-06-20T04:42:12.387Z,99.90
2019-06-20T04:44:43.119Z,99.90
2019-06-20T04:47:16.085Z,99.90
2019-06-20T04:49:48.363Z,99.90
2019-06-20T04:52:19.429Z,99.90
2019-06-20T04:54:50.062Z,99.90
2019-06-20T04:57:21.381Z,99.90
2019-06-20T04:59:53.799Z,99.90
2019-06-20T05:02:26.333Z,99.90
2019-06-20T05:04:56.986Z,99.90
2019-06-20T05:07:27.666Z,99.90
2019-06-20T05:09:58.171Z,99.90
2019-06-20T05:12:28.841Z,99.90
2019-06-20T05:14:59.697Z,99.90
2019-06-20T05:17:30.772Z,99.90
2019-06-20T05:20:01.808Z,99.90
2019-06-20T05:22:32.544Z,99.90
2019-06-20T05:25:03.229Z,99.90
2019-06-20T05:27:33.947Z,99.90
2019-06-20T05:30:10.949Z,99.90
2019-06-20T05:32:41.757Z,99.90
2019-06-20T05:35:12.744Z,99.90
2019-06-20T05:37:43.583Z,99.90
2019-06-20T05:40:14.500Z,99.90
2019-06-20T05:42:45.102Z,99.90
2019-06-20T05:45:15.958Z,99.90
2019-06-20T05:47:46.694Z,99.90
2019-06-20T05:50:17.495Z,99.90
2019-06-20T05:52:48.399Z,99.90
2019-06-20T05:55:19.141Z,99.90
2019-06-20T05:57:49.891Z,99.90
2019-06-20T06:00:21.158Z,99.90
2019-06-20T06:02:51.887Z,99.90
2019-06-20T06:05:22.658Z,99.90
2019-06-20T06:07:53.779Z,99.90
2019-06-20T06:10:24.887Z,99.90
2019-06-20T06:12:55.675Z,99.90
2019-06-20T06:15:26.763Z,99.90
2019-06-20T06:17:57.484Z,99.90
2019-06-20T06:20:28.470Z,99.90
2019-06-20T06:22:59.416Z,99.90
2019-06-20T06:25:31.159Z,99.90
2019-06-20T06:28:01.801Z,99.90
2019-06-20T06:30:32.652Z,99.90
2019-06-20T06:33:03.394Z,99.90
2019-06-20T06:35:36.017Z,99.90
2019-06-20T06:38:06.746Z,99.90
2019-06-20T06:40:37.499Z,99.90
2019-06-20T06:43:08.173Z,99.90
2019-06-20T06:45:39.082Z,99.90
2019-06-20T06:48:09.759Z,99.90
2019-06-20T06:50:40.730Z,99.90
2019-06-20T06:53:11.410Z,99.90
2019-06-20T06:55:59.041Z,99.90
2019-06-20T06:58:29.977Z,99.90
2019-06-20T07:01:00.802Z,99.90
2019-06-20T07:03:31.688Z,99.90
2019-06-20T07:06:02.616Z,99.90
2019-06-20T07:08:33.628Z,99.90
2019-06-20T07:11:04.827Z,99.90
2019-06-20T07:13:36.154Z,99.90
2019-06-20T07:16:07.271Z,99.90
2019-06-20T07:18:38.055Z,99.90
2019-06-20T07:21:09.017Z,99.90
2019-06-20T07:23:39.981Z,99.90
2019-06-20T07:26:10.768Z,99.90
2019-06-20T07:28:41.768Z,99.90
2019-06-20T07:31:12.644Z,99.90
2019-06-20T07:33:43.571Z,99.90
2019-06-20T07:36:14.317Z,99.90
2019-06-20T07:38:45.038Z,99.90
2019-06-20T07:41:16.039Z,99.90
2019-06-20T07:43:46.810Z,99.90
2019-06-20T07:46:17.894Z,99.90
2019-06-20T07:48:48.805Z,99.90
2019-06-20T07:51:19.727Z,99.90
2019-06-20T07:53:51.323Z,99.90
2019-06-20T07:56:22.058Z,99.90
2019-06-20T07:58:53.021Z,99.90
2019-06-20T08:01:23.858Z,99.90
2019-06-20T08:03:54.722Z,99.20
2019-06-20T08:06:25.518Z,99.90
2019-06-20T08:08:56.422Z,99.90
2019-06-20T08:11:27.159Z,99.90
2019-06-20T08:13:57.817Z,99.90
2019-06-20T08:16:28.619Z,99.90
2019-06-20T08:18:59.591Z,99.90
2019-06-20T08:21:30.363Z,99.90
2019-06-20T08:24:01.246Z,99.90
2019-06-20T08:26:32.192Z,99.90
2019-06-20T08:29:16.651Z,99.90
2019-06-20T08:31:35.425Z,99.90
2019-06-20T08:34:06.551Z,99.90
2019-06-20T08:36:37.690Z,99.90
2019-06-20T08:39:09.793Z,99.90
2019-06-20T08:41:40.529Z,99.90
2019-06-20T08:44:11.568Z,99.90
2019-06-20T08:46:42.603Z,99.90
2019-06-20T08:49:13.463Z,99.90
2019-06-20T08:51:47.433Z,99.90
2019-06-20T08:54:18.208Z,99.90
2019-06-20T08:56:49.274Z,99.90
2019-06-20T08:59:24.407Z,99.90
2019-06-20T09:01:55.998Z,99.90
2019-06-20T09:04:25.067Z,99.90
2019-06-20T09:06:57.521Z,99.90
2019-06-20T09:09:28.211Z,99.90
2019-06-20T09:12:00.294Z,99.90
2019-06-20T09:14:30.987Z,99.90
2019-06-20T09:17:02.830Z,99.90
2019-06-20T09:19:33.749Z,99.90
2019-06-20T09:22:05.113Z,99.90
2019-06-20T09:24:37.078Z,99.90
2019-06-20T09:27:07.947Z,99.90
2019-06-20T09:29:42.007Z,99.90
2019-06-20T09:32:10.907Z,99.90
2019-06-20T09:34:41.720Z,99.90
2019-06-20T09:37:12.373Z,99.90
2019-06-20T09:39:43.133Z,99.90
2019-06-20T09:42:13.897Z,99.90
2019-06-20T09:44:44.488Z,99.90
2019-06-20T09:47:15.283Z,99.90
2019-06-20T09:49:49.248Z,99.90
2019-06-20T09:52:18.243Z,99.90
2019-06-20T09:54:50.139Z,99.90
2019-06-20T09:57:20.816Z,99.90
2019-06-20T10:00:02.726Z,99.90
2019-06-20T10:02:23.951Z,99.90
2019-06-20T10:04:54.633Z,99.90
2019-06-20T10:07:26.104Z,99.90
2019-06-20T10:09:56.765Z,99.90
2019-06-20T10:12:27.488Z,99.90
2019-06-20T10:14:58.191Z,99.90
2019-06-20T10:17:28.842Z,99.90
2019-06-20T10:19:59.855Z,99.90
2019-06-20T10:22:30.743Z,99.90
2019-06-20T10:25:01.749Z,99.90
2019-06-20T10:27:33.938Z,99.90
2019-06-20T10:30:14.431Z,99.90
2019-06-20T10:32:39.998Z,99.90
2019-06-20T10:35:11.174Z,99.90
2019-06-20T10:37:41.827Z,99.90
2019-06-20T10:40:12.698Z,99.90
2019-06-20T10:42:44.475Z,99.90
2019-06-20T10:45:16.854Z,99.90
2019-06-20T10:47:49.028Z,99.90
2019-06-20T10:50:20.986Z,99.90
2019-06-20T10:52:52.099Z,99.90
2019-06-20T10:55:22.749Z,99.90
2019-06-20T10:57:53.502Z,99.90
2019-06-20T11:00:31.226Z,99.90
2019-06-20T11:02:59.857Z,99.90
2019-06-20T11:05:30.803Z,99.90
2019-06-20T11:08:01.866Z,99.90
2019-06-20T11:10:32.969Z,99.90
2019-06-20T11:13:03.662Z,99.90
2019-06-20T11:15:37.466Z,99.90
2019-06-20T11:18:08.481Z,99.90
2019-06-20T11:20:40.880Z,99.90
2019-06-20T11:23:11.813Z,99.90
2019-06-20T11:25:43.662Z,99.90
2019-06-20T11:28:14.453Z,99.90
2019-06-20T11:30:56.136Z,99.90
2019-06-20T11:33:17.893Z,99.90
2019-06-20T11:35:48.547Z,99.90
2019-06-20T11:38:19.245Z,99.80
2019-06-20T11:40:50.013Z,98.70
2019-06-20T11:43:20.694Z,98.10
2019-06-20T11:45:51.411Z,97.00
2019-06-20T11:48:22.103Z,95.60
2019-06-20T11:50:54.046Z,91.20
2019-06-20T11:53:24.876Z,91.50
2019-06-20T11:55:56.626Z,92.30
2019-06-20T11:58:27.578Z,92.90
2019-06-20T12:01:03.509Z,92.10
2019-06-20T12:03:30.592Z,90.50
2019-06-20T12:06:01.262Z,90.30
2019-06-20T12:08:32.781Z,88.70
2019-06-20T12:11:03.490Z,84.40
2019-06-20T12:13:34.469Z,88.50
2019-06-20T12:16:05.122Z,86.30
2019-06-20T12:18:35.820Z,83.70
2019-06-20T12:21:06.814Z,84.80
2019-06-20T12:23:38.098Z,80.50
2019-06-20T12:26:10.228Z,81.20
2019-06-20T12:28:42.237Z,84.70
2019-06-20T12:31:19.542Z,84.10
2019-06-20T12:33:47.654Z,86.40
2019-06-20T12:36:18.439Z,88.40
2019-06-20T12:38:49.029Z,88.40
2019-06-20T12:41:20.146Z,88.40
2019-06-20T12:43:51.090Z,87.90
2019-06-20T12:46:22.030Z,89.50
2019-06-20T12:48:52.617Z,90.60
2019-06-20T12:51:23.618Z,90.30
2019-06-20T12:53:54.413Z,90.50
2019-06-20T12:56:25.162Z,91.50
2019-06-20T12:58:55.839Z,92.00
2019-06-20T13:01:36.808Z,91.20
2019-06-20T13:03:58.843Z,90.80
2019-06-20T13:06:29.613Z,91.60
2019-06-20T13:09:00.468Z,91.10
2019-06-20T13:11:33.026Z,92.40
2019-06-20T13:14:03.905Z,91.30
2019-06-20T13:16:34.881Z,90.30
2019-06-20T13:19:05.555Z,90.20
2019-06-20T13:21:36.330Z,89.40
2019-06-20T13:24:07.434Z,89.70
2019-06-20T13:26:40.632Z,90.10
2019-06-20T13:29:11.998Z,90.50
2019-06-20T13:31:58.452Z,91.00
2019-06-20T13:34:15.331Z,91.30
2019-06-20T13:36:47.033Z,91.60
2019-06-20T13:39:18.029Z,92.00
2019-06-20T13:41:50.222Z,92.30
2019-06-20T13:44:21.879Z,92.70
2019-06-20T13:46:52.955Z,92.80
2019-06-20T13:49:23.804Z,93.30
2019-06-20T13:51:54.766Z,93.60
2019-06-20T13:54:25.586Z,94.40
2019-06-20T13:56:56.348Z,94.40
2019-06-20T13:59:28.239Z,94.50
2019-06-20T14:02:06.691Z,94.30
2019-06-20T14:04:33.183Z,94.70
2019-06-20T14:07:03.939Z,94.90
2019-06-20T14:09:34.896Z,94.30
2019-06-20T14:12:07.303Z,94.30
2019-06-20T14:14:38.040Z,95.30
2019-06-20T14:17:08.774Z,96.10
2019-06-20T14:19:39.907Z,97.10
2019-06-20T14:22:11.185Z,98.20
2019-06-20T14:24:43.406Z,99.50
2019-06-20T14:27:14.144Z,99.90
2019-06-20T14:29:45.384Z,99.90
2019-06-20T14:32:22.146Z,99.90
2019-06-20T14:34:50.327Z,99.90
2019-06-20T14:37:21.132Z,99.90
2019-06-20T14:39:52.654Z,99.90
2019-06-20T14:42:23.784Z,99.90
2019-06-20T14:44:54.465Z,99.90
2019-06-20T14:47:26.345Z,99.90
2019-06-20T14:49:57.148Z,99.90
2019-06-20T14:52:27.849Z,99.90
2019-06-20T14:54:58.453Z,99.90
2019-06-20T14:57:29.203Z,99.90
2019-06-20T14:59:59.890Z,99.90
2019-06-20T15:02:38.416Z,99.90
2019-06-20T15:05:02.889Z,99.90
2019-06-20T15:07:33.570Z,99.90
2019-06-20T15:10:06.681Z,99.90
2019-06-20T15:12:37.600Z,99.90
2019-06-20T15:15:08.815Z,99.90
2019-06-20T15:17:39.636Z,99.90
2019-06-20T15:20:10.886Z,99.90
2019-06-20T15:22:42.459Z,99.90
2019-06-20T15:25:14.780Z,99.90
2019-06-20T15:27:47.260Z,99.90
2019-06-20T15:30:17.951Z,99.90
2019-06-20T15:32:59.212Z,99.90
2019-06-20T15:35:20.985Z,99.90
2019-06-20T15:37:53.608Z,99.90
2019-06-20T15:40:24.960Z,99.90
2019-06-20T15:42:56.970Z,99.90
2019-06-20T15:45:28.130Z,99.90
2019-06-20T15:47:59.421Z,99.90
2019-06-20T15:50:30.055Z,99.90
2019-06-20T15:53:00.855Z,99.90
2019-06-20T15:55:31.844Z,99.90
2019-06-20T15:58:03.231Z,99.90
2019-06-20T16:00:34.299Z,99.90
2019-06-20T16:03:09.922Z,99.90
2019-06-20T16:05:40.498Z,99.90
2019-06-20T16:08:11.083Z,99.90
2019-06-20T16:10:42.253Z,99.90
2019-06-20T16:13:14.500Z,99.90
2019-06-20T16:15:45.585Z,99.90
2019-06-20T16:18:16.232Z,99.90
2019-06-20T16:20:47.725Z,99.90
2019-06-20T16:23:18.385Z,99.90
2019-06-20T16:25:49.162Z,99.90
2019-06-20T16:28:19.882Z,99.90
2019-06-20T16:30:50.554Z,99.90
2019-06-20T16:33:25.098Z,99.90
2019-06-20T16:35:53.671Z,99.90
2019-06-20T16:38:24.635Z,99.90
2019-06-20T16:40:55.617Z,99.90
2019-06-20T16:43:28.564Z,99.90
2019-06-20T16:45:58.817Z,99.90
2019-06-20T16:48:29.498Z,99.90
2019-06-20T16:51:00.258Z,99.90
2019-06-20T16:53:31.083Z,99.90
2019-06-20T16:56:02.217Z,99.90
2019-06-20T16:58:33.037Z,99.90
2019-06-20T17:01:04.093Z,99.90
2019-06-20T17:03:41.524Z,99.90
2019-06-20T17:06:07.386Z,99.90
2019-06-20T17:08:39.249Z,99.90
2019-06-20T17:11:10.265Z,99.90
2019-06-20T17:13:41.026Z,99.90
2019-06-20T17:16:11.689Z,99.90
2019-06-20T17:18:42.443Z,99.90
2019-06-20T17:21:13.353Z,99.90
2019-06-20T17:23:45.315Z,99.90
2019-06-20T17:26:16.447Z,99.90
2019-06-20T17:28:47.137Z,99.90
2019-06-20T17:31:18.025Z,99.90
2019-06-20T17:33:57.552Z,99.90
2019-06-20T17:36:24.006Z,99.90
2019-06-20T17:38:55.234Z,99.90
2019-06-20T17:41:26.288Z,99.90
2019-06-20T17:43:57.599Z,99.90
2019-06-20T17:46:28.396Z,99.90
2019-06-20T17:48:59.187Z,99.90
2019-06-20T17:51:30.094Z,99.90
2019-06-20T17:54:01.099Z,99.90
2019-06-20T17:56:32.008Z,99.90
2019-06-20T17:59:02.846Z,99.90
2019-06-20T18:01:35.975Z,99.90
2019-06-20T18:04:13.740Z,99.90
2019-06-20T18:06:38.474Z,99.90
2019-06-20T18:09:10.256Z,99.90
2019-06-20T18:11:41.009Z,99.90
2019-06-20T18:14:12.013Z,99.90
2019-06-20T18:16:45.495Z,99.90
2019-06-20T18:19:16.382Z,99.90
2019-06-20T18:21:47.193Z,99.90
2019-06-20T18:24:18.001Z,99.90
2019-06-20T18:26:48.675Z,99.90
2019-06-20T18:29:19.340Z,99.90
2019-06-20T18:31:50.340Z,99.90
2019-06-20T18:34:30.094Z,99.90
2019-06-20T18:36:54.730Z,99.90
2019-06-20T18:39:25.501Z,99.90
2019-06-20T18:41:56.669Z,99.90
2019-06-20T18:44:27.493Z,99.90
2019-06-20T18:46:58.241Z,99.90
2019-06-20T18:49:28.876Z,99.90
2019-06-20T18:51:59.627Z,99.90
2019-06-20T18:54:30.536Z,99.90
2019-06-20T18:57:01.500Z,99.90
2019-06-20T18:59:33.423Z,99.90
2019-06-20T19:02:04.385Z,99.90
2019-06-20T19:04:46.423Z,99.90
2019-06-20T19:07:07.888Z,99.90
2019-06-20T19:09:38.688Z,99.90
2019-06-20T19:12:09.370Z,99.90
2019-06-20T19:14:40.533Z,99.90
2019-06-20T19:17:14.668Z,99.90
2019-06-20T19:19:44.135Z,99.90
2019-06-20T19:22:14.855Z,99.90
2019-06-20T19:24:45.597Z,99.90
2019-06-20T19:27:16.394Z,99.90
2019-06-20T19:29:49.675Z,99.90
2019-06-20T19:32:20.135Z,99.90
2019-06-20T19:35:01.444Z,99.90
2019-06-20T19:37:25.689Z,99.90
2019-06-20T19:39:56.859Z,99.90
2019-06-20T19:42:27.689Z,99.90
2019-06-20T19:44:58.735Z,99.90
2019-06-20T19:47:29.606Z,99.90
2019-06-20T19:50:00.666Z,99.90
2019-06-20T19:52:31.717Z,99.90
2019-06-20T19:55:02.615Z,99.90
2019-06-20T19:57:34.346Z,99.90
2019-06-20T20:00:09.224Z,99.90
2019-06-20T20:02:40.203Z,99.90
2019-06-20T20:05:19.274Z,99.90
2019-06-20T20:07:44.263Z,99.90
2019-06-20T20:10:15.251Z,99.90
2019-06-20T20:12:46.071Z,99.90
2019-06-20T20:15:20.000Z,99.90
2019-06-20T20:17:50.688Z,99.90
2019-06-20T20:20:21.447Z,99.90
2019-06-20T20:22:52.144Z,99.90
2019-06-20T20:25:23.651Z,99.90
2019-06-20T20:27:54.255Z,99.90
2019-06-20T20:30:25.110Z,99.90
2019-06-20T20:32:55.889Z,99.90
2019-06-20T20:35:35.603Z,99.90
2019-06-20T20:37:59.079Z,99.90
2019-06-20T20:40:29.739Z,99.90
2019-06-20T20:43:00.642Z,99.90
2019-06-20T20:45:31.383Z,99.90
2019-06-20T20:48:02.233Z,99.90
2019-06-20T20:50:33.061Z,99.90
2019-06-20T20:53:03.854Z,99.90
2019-06-20T20:55:34.884Z,99.90
2019-06-20T20:58:05.622Z,99.90
2019-06-20T21:00:50.831Z,99.90
2019-06-20T21:03:22.596Z,99.90
2019-06-20T21:05:53.257Z,99.90
2019-06-20T21:08:23.934Z,99.90
2019-06-20T21:10:54.605Z,99.90
2019-06-20T21:13:25.505Z,99.90
2019-06-20T21:15:56.192Z,99.90
2019-06-20T21:18:27.194Z,99.90
2019-06-20T21:20:57.842Z,99.90
2019-06-20T21:23:28.526Z,99.90
2019-06-20T21:26:00.253Z,99.90
2019-06-20T21:28:31.237Z,99.90
2019-06-20T21:31:02.162Z,99.90
2019-06-20T21:33:32.823Z,99.90
2019-06-20T21:36:08.410Z,99.90
2019-06-20T21:38:35.931Z,99.90
2019-06-20T21:41:06.649Z,99.90
2019-06-20T21:43:37.470Z,99.90
2019-06-20T21:46:08.136Z,99.90
2019-06-20T21:48:38.941Z,99.90
2019-06-20T21:51:09.610Z,99.90
2019-06-20T21:53:40.472Z,99.90
2019-06-20T21:56:11.251Z,99.90
2019-06-20T21:58:42.159Z,99.90
2019-06-20T22:01:13.338Z,99.90
2019-06-20T22:03:44.974Z,99.90
2019-06-20T22:06:23.741Z,99.90
2019-06-20T22:08:48.164Z,99.90
2019-06-20T22:11:18.870Z,99.90
2019-06-20T22:13:49.623Z,99.90
2019-06-20T22:16:20.354Z,99.90
2019-06-20T22:18:51.481Z,99.90
2019-06-20T22:21:22.135Z,99.90
2019-06-20T22:23:53.044Z,99.90
2019-06-20T22:26:23.878Z,99.90
2019-06-20T22:28:54.577Z,99.90
2019-06-20T22:31:25.275Z,99.90
2019-06-20T22:33:55.967Z,99.90
2019-06-20T22:36:39.607Z,99.90
2019-06-20T22:38:59.209Z,99.90
2019-06-20T22:41:29.908Z,99.90
2019-06-20T22:44:00.810Z,99.90
2019-06-20T22:46:31.672Z,99.90
2019-06-20T22:49:02.318Z,99.90
2019-06-20T22:51:33.016Z,99.90
2019-06-20T22:54:03.828Z,99.90
2019-06-20T22:56:34.482Z,99.90
2019-06-20T22:59:05.325Z,99.90
2019-06-20T23:01:37.405Z,99.90
2019-06-20T23:04:08.066Z,99.90
2019-06-20T23:06:52.465Z,99.90
2019-06-20T23:09:11.030Z,99.90
2019-06-20T23:11:41.742Z,99.90
2019-06-20T23:14:12.654Z,99.90
2019-06-20T23:16:43.528Z,99.90
2019-06-20T23:19:14.113Z,99.90
2019-06-20T23:21:44.824Z,99.90
2019-06-20T23:24:16.538Z,99.90
2019-06-20T23:26:47.289Z,99.90
2019-06-20T23:29:23.910Z,99.90
2019-06-20T23:31:56.094Z,99.90
2019-06-20T23:34:26.872Z,99.90
2019-06-20T23:37:11.738Z,99.90
2019-06-20T23:39:30.244Z,99.90
2019-06-20T23:42:00.930Z,99.90
2019-06-20T23:44:31.887Z,99.90
2019-06-20T23:47:02.664Z,99.90
2019-06-20T23:49:33.344Z,99.90
2019-06-20T23:52:05.632Z,99.90
2019-06-20T23:54:36.309Z,99.90
2019-06-20T23:57:07.278Z,99.90
2019-06-20T23:59:38.049Z,99.90
